sensor_id;sensor_type;location;lat;lon;timestamp;pressure;altitude;pressure_sealevel;temperature
19040;BMP180;9652;49.014;12.052;2023-04-01T00:02:15;96425.00;;;11.50
19040;BMP180;9652;49.014;12.052;2023-04-01T00:04:42;96429.00;;;11.50
19040;BMP180;9652;49.014;12.052;2023-04-01T00:07:12;96418.00;;;11.60
19040;BMP180;9652;49.014;12.052;2023-04-01T00:09:39;96419.00;;;11.60
19040;BMP180;9652;49.014;12.052;2023-04-01T00:12:06;96409.00;;;11.60
19040;BMP180;9652;49.014;12.052;2023-04-01T00:14:33;96416.00;;;11.60
19040;BMP180;9652;49.014;12.052;2023-04-01T00:17:04;96419.00;;;11.60
19040;BMP180;9652;49.014;12.052;2023-04-01T00:19:31;96420.00;;;11.70
19040;BMP180;9652;49.014;12.052;2023-04-01T00:21:58;96421.00;;;11.70
19040;BMP180;9652;49.014;12.052;2023-04-01T00:24:25;96412.00;;;11.70
19040;BMP180;9652;49.014;12.052;2023-04-01T00:26:52;96382.00;;;11.70
19040;BMP180;9652;49.014;12.052;2023-04-01T00:29:19;96414.00;;;11.70
19040;BMP180;9652;49.014;12.052;2023-04-01T00:31:47;96413.00;;;11.70
19040;BMP180;9652;49.014;12.052;2023-04-01T00:34:16;96426.00;;;11.70
19040;BMP180;9652;49.014;12.052;2023-04-01T00:36:43;96382.00;;;11.70
19040;BMP180;9652;49.014;12.052;2023-04-01T00:39:10;96414.00;;;11.70
19040;BMP180;9652;49.014;12.052;2023-04-01T00:41:37;96421.00;;;11.70
19040;BMP180;9652;49.014;12.052;2023-04-01T00:44:18;96405.00;;;11.70
19040;BMP180;9652;49.014;12.052;2023-04-01T00:46:46;96410.00;;;11.60
19040;BMP180;9652;49.014;12.052;2023-04-01T00:49:17;96403.00;;;11.60
19040;BMP180;9652;49.014;12.052;2023-04-01T00:51:48;96398.00;;;11.60
19040;BMP180;9652;49.014;12.052;2023-04-01T00:54:19;96403.00;;;11.60
19040;BMP180;9652;49.014;12.052;2023-04-01T00:56:51;96352.00;;;11.60
19040;BMP180;9652;49.014;12.052;2023-04-01T00:59:26;96416.00;;;11.60
19040;BMP180;9652;49.014;12.052;2023-04-01T01:01:54;96420.00;;;11.60
19040;BMP180;9652;49.014;12.052;2023-04-01T01:04:26;96417.00;;;11.60
19040;BMP180;9652;49.014;12.052;2023-04-01T01:07:06;96432.00;;;11.60
19040;BMP180;9652;49.014;12.052;2023-04-01T01:09:46;96399.00;;;11.60
19040;BMP180;9652;49.014;12.052;2023-04-01T01:12:21;96408.00;;;11.60
19040;BMP180;9652;49.014;12.052;2023-04-01T01:15:07;96404.00;;;11.60
19040;BMP180;9652;49.014;12.052;2023-04-01T01:17:48;96401.00;;;11.60
19040;BMP180;9652;49.014;12.052;2023-04-01T01:24:22;96410.00;;;11.60
19040;BMP180;9652;49.014;12.052;2023-04-01T01:27:01;96394.00;;;11.60
19040;BMP180;9652;49.014;12.052;2023-04-01T01:30:13;96403.00;;;11.60
19040;BMP180;9652;49.014;12.052;2023-04-01T01:33:13;96398.00;;;11.60
19040;BMP180;9652;49.014;12.052;2023-04-01T01:35:50;96399.00;;;11.60
19040;BMP180;9652;49.014;12.052;2023-04-01T01:38:24;96406.00;;;11.60
19040;BMP180;9652;49.014;12.052;2023-04-01T01:41:04;96397.00;;;11.60
19040;BMP180;9652;49.014;12.052;2023-04-01T01:43:37;96399.00;;;11.60
19040;BMP180;9652;49.014;12.052;2023-04-01T01:46:09;96397.00;;;11.60
19040;BMP180;9652;49.014;12.052;2023-04-01T01:48:41;96397.00;;;11.60
19040;BMP180;9652;49.014;12.052;2023-04-01T01:51:10;96398.00;;;11.60
19040;BMP180;9652;49.014;12.052;2023-04-01T01:53:38;96398.00;;;11.60
19040;BMP180;9652;49.014;12.052;2023-04-01T01:56:06;96407.00;;;11.70
19040;BMP180;9652;49.014;12.052;2023-04-01T01:58:41;96395.00;;;11.70
19040;BMP180;9652;49.014;12.052;2023-04-01T02:01:17;96399.00;;;11.70
19040;BMP180;9652;49.014;12.052;2023-04-01T02:03:47;96402.00;;;11.70
19040;BMP180;9652;49.014;12.052;2023-04-01T02:06:19;96403.00;;;11.70
19040;BMP180;9652;49.014;12.052;2023-04-01T02:08:51;96325.00;;;11.70
19040;BMP180;9652;49.014;12.052;2023-04-01T02:11:26;96381.00;;;11.70
19040;BMP180;9652;49.014;12.052;2023-04-01T02:13:58;96395.00;;;11.70
19040;BMP180;9652;49.014;12.052;2023-04-01T02:16:33;96396.00;;;11.70
19040;BMP180;9652;49.014;12.052;2023-04-01T02:19:04;96386.00;;;11.70
19040;BMP180;9652;49.014;12.052;2023-04-01T02:21:35;96389.00;;;11.70
19040;BMP180;9652;49.014;12.052;2023-04-01T02:24:08;96391.00;;;11.70
19040;BMP180;9652;49.014;12.052;2023-04-01T02:26:36;96401.00;;;11.70
19040;BMP180;9652;49.014;12.052;2023-04-01T02:29:06;96398.00;;;11.60
19040;BMP180;9652;49.014;12.052;2023-04-01T02:31:34;96392.00;;;11.60
19040;BMP180;9652;49.014;12.052;2023-04-01T02:34:03;96389.00;;;11.60
19040;BMP180;9652;49.014;12.052;2023-04-01T02:36:31;96389.00;;;11.60
19040;BMP180;9652;49.014;12.052;2023-04-01T02:39:00;96405.00;;;11.60
19040;BMP180;9652;49.014;12.052;2023-04-01T02:41:30;96417.00;;;11.60
19040;BMP180;9652;49.014;12.052;2023-04-01T02:43:57;96409.00;;;11.60
19040;BMP180;9652;49.014;12.052;2023-04-01T02:46:25;96407.00;;;11.60
19040;BMP180;9652;49.014;12.052;2023-04-01T02:48:52;96404.00;;;11.60
19040;BMP180;9652;49.014;12.052;2023-04-01T02:51:20;96425.00;;;11.60
19040;BMP180;9652;49.014;12.052;2023-04-01T02:53:47;96417.00;;;11.60
19040;BMP180;9652;49.014;12.052;2023-04-01T02:56:15;96418.00;;;11.60
19040;BMP180;9652;49.014;12.052;2023-04-01T02:58:43;96427.00;;;11.60
19040;BMP180;9652;49.014;12.052;2023-04-01T03:01:10;96419.00;;;11.60
19040;BMP180;9652;49.014;12.052;2023-04-01T03:03:37;96426.00;;;11.60
19040;BMP180;9652;49.014;12.052;2023-04-01T03:06:05;96432.00;;;11.60
19040;BMP180;9652;49.014;12.052;2023-04-01T03:08:33;96422.00;;;11.60
19040;BMP180;9652;49.014;12.052;2023-04-01T03:11:00;96434.00;;;11.60
19040;BMP180;9652;49.014;12.052;2023-04-01T03:13:30;96395.00;;;11.60
19040;BMP180;9652;49.014;12.052;2023-04-01T03:15:57;96418.00;;;11.60
19040;BMP180;9652;49.014;12.052;2023-04-01T03:18:24;96428.00;;;11.60
19040;BMP180;9652;49.014;12.052;2023-04-01T03:20:52;96397.00;;;11.70
19040;BMP180;9652;49.014;12.052;2023-04-01T03:23:19;96438.00;;;11.60
19040;BMP180;9652;49.014;12.052;2023-04-01T03:25:47;96440.00;;;11.60
19040;BMP180;9652;49.014;12.052;2023-04-01T03:28:15;96444.00;;;11.60
19040;BMP180;9652;49.014;12.052;2023-04-01T03:30:44;96436.00;;;11.50
19040;BMP180;9652;49.014;12.052;2023-04-01T03:33:12;96439.00;;;11.50
19040;BMP180;9652;49.014;12.052;2023-04-01T03:35:39;96433.00;;;11.50
19040;BMP180;9652;49.014;12.052;2023-04-01T03:38:06;96426.00;;;11.50
19040;BMP180;9652;49.014;12.052;2023-04-01T03:40:33;96445.00;;;11.50
19040;BMP180;9652;49.014;12.052;2023-04-01T03:43:03;96439.00;;;11.40
19040;BMP180;9652;49.014;12.052;2023-04-01T03:45:34;96432.00;;;11.40
19040;BMP180;9652;49.014;12.052;2023-04-01T03:48:03;96457.00;;;11.40
19040;BMP180;9652;49.014;12.052;2023-04-01T03:50:30;96446.00;;;11.40
19040;BMP180;9652;49.014;12.052;2023-04-01T03:52:57;96448.00;;;11.40
19040;BMP180;9652;49.014;12.052;2023-04-01T03:55:24;96445.00;;;11.40
19040;BMP180;9652;49.014;12.052;2023-04-01T03:57:52;96442.00;;;11.40
19040;BMP180;9652;49.014;12.052;2023-04-01T04:00:19;96450.00;;;11.40
19040;BMP180;9652;49.014;12.052;2023-04-01T04:02:52;96451.00;;;11.40
19040;BMP180;9652;49.014;12.052;2023-04-01T04:05:27;96455.00;;;11.40
19040;BMP180;9652;49.014;12.052;2023-04-01T04:07:54;96458.00;;;11.40
19040;BMP180;9652;49.014;12.052;2023-04-01T04:10:22;96460.00;;;11.40
19040;BMP180;9652;49.014;12.052;2023-04-01T04:12:51;96423.00;;;11.30
19040;BMP180;9652;49.014;12.052;2023-04-01T04:15:22;96429.00;;;11.30
19040;BMP180;9652;49.014;12.052;2023-04-01T04:17:49;96454.00;;;11.30
19040;BMP180;9652;49.014;12.052;2023-04-01T04:20:16;96460.00;;;11.30
19040;BMP180;9652;49.014;12.052;2023-04-01T04:22:45;96462.00;;;11.30
19040;BMP180;9652;49.014;12.052;2023-04-01T04:25:12;96454.00;;;11.30
19040;BMP180;9652;49.014;12.052;2023-04-01T04:27:39;96465.00;;;11.30
19040;BMP180;9652;49.014;12.052;2023-04-01T04:30:10;96465.00;;;11.40
19040;BMP180;9652;49.014;12.052;2023-04-01T04:32:37;96474.00;;;11.40
19040;BMP180;9652;49.014;12.052;2023-04-01T04:35:05;96475.00;;;11.40
19040;BMP180;9652;49.014;12.052;2023-04-01T04:37:34;96450.00;;;11.40
19040;BMP180;9652;49.014;12.052;2023-04-01T04:40:03;96463.00;;;11.40
19040;BMP180;9652;49.014;12.052;2023-04-01T04:42:31;96485.00;;;11.40
19040;BMP180;9652;49.014;12.052;2023-04-01T04:45:05;96448.00;;;11.40
19040;BMP180;9652;49.014;12.052;2023-04-01T04:47:33;96474.00;;;11.30
19040;BMP180;9652;49.014;12.052;2023-04-01T04:50:00;96476.00;;;11.30
19040;BMP180;9652;49.014;12.052;2023-04-01T04:52:27;96474.00;;;11.30
19040;BMP180;9652;49.014;12.052;2023-04-01T04:54:55;96462.00;;;11.30
19040;BMP180;9652;49.014;12.052;2023-04-01T04:57:23;96465.00;;;11.20
19040;BMP180;9652;49.014;12.052;2023-04-01T04:59:54;96432.00;;;11.20
19040;BMP180;9652;49.014;12.052;2023-04-01T05:02:33;96471.00;;;11.10
19040;BMP180;9652;49.014;12.052;2023-04-01T05:05:00;96493.00;;;11.10
19040;BMP180;9652;49.014;12.052;2023-04-01T05:07:27;96490.00;;;11.10
19040;BMP180;9652;49.014;12.052;2023-04-01T05:09:55;96485.00;;;11.00
19040;BMP180;9652;49.014;12.052;2023-04-01T05:12:23;96460.00;;;11.00
19040;BMP180;9652;49.014;12.052;2023-04-01T05:14:55;96478.00;;;11.00
19040;BMP180;9652;49.014;12.052;2023-04-01T05:17:23;96487.00;;;10.90
19040;BMP180;9652;49.014;12.052;2023-04-01T05:19:50;96492.00;;;11.00
19040;BMP180;9652;49.014;12.052;2023-04-01T05:22:17;96444.00;;;11.00
19040;BMP180;9652;49.014;12.052;2023-04-01T05:24:44;96485.00;;;11.00
19040;BMP180;9652;49.014;12.052;2023-04-01T05:27:12;96501.00;;;11.00
19040;BMP180;9652;49.014;12.052;2023-04-01T05:29:42;96494.00;;;11.10
19040;BMP180;9652;49.014;12.052;2023-04-01T05:32:25;96504.00;;;11.10
19040;BMP180;9652;49.014;12.052;2023-04-01T05:34:53;96494.00;;;11.20
19040;BMP180;9652;49.014;12.052;2023-04-01T05:37:20;96499.00;;;11.30
19040;BMP180;9652;49.014;12.052;2023-04-01T05:39:48;96488.00;;;11.30
19040;BMP180;9652;49.014;12.052;2023-04-01T05:42:17;96489.00;;;11.40
19040;BMP180;9652;49.014;12.052;2023-04-01T05:44:45;96498.00;;;11.40
19040;BMP180;9652;49.014;12.052;2023-04-01T05:47:48;96492.00;;;11.50
19040;BMP180;9652;49.014;12.052;2023-04-01T05:50:17;96469.00;;;11.50
19040;BMP180;9652;49.014;12.052;2023-04-01T05:52:44;96502.00;;;11.60
19040;BMP180;9652;49.014;12.052;2023-04-01T05:55:12;96501.00;;;11.60
19040;BMP180;9652;49.014;12.052;2023-04-01T05:57:39;96504.00;;;11.70
19040;BMP180;9652;49.014;12.052;2023-04-01T06:00:09;96493.00;;;11.70
19040;BMP180;9652;49.014;12.052;2023-04-01T06:02:40;96477.00;;;11.80
19040;BMP180;9652;49.014;12.052;2023-04-01T06:05:17;96512.00;;;11.80
19040;BMP180;9652;49.014;12.052;2023-04-01T06:07:45;96504.00;;;11.90
19040;BMP180;9652;49.014;12.052;2023-04-01T06:10:17;96499.00;;;11.90
19040;BMP180;9652;49.014;12.052;2023-04-01T06:12:57;96487.00;;;11.80
19040;BMP180;9652;49.014;12.052;2023-04-01T06:15:37;96513.00;;;12.00
19040;BMP180;9652;49.014;12.052;2023-04-01T06:18:59;96479.00;;;12.10
19040;BMP180;9652;49.014;12.052;2023-04-01T06:25:31;96484.00;;;12.10
19040;BMP180;9652;49.014;12.052;2023-04-01T06:28:31;96507.00;;;12.20
19040;BMP180;9652;49.014;12.052;2023-04-01T06:31:20;96525.00;;;12.20
19040;BMP180;9652;49.014;12.052;2023-04-01T06:34:17;96512.00;;;12.30
19040;BMP180;9652;49.014;12.052;2023-04-01T06:37:10;96514.00;;;12.30
19040;BMP180;9652;49.014;12.052;2023-04-01T06:40:04;96512.00;;;12.40
19040;BMP180;9652;49.014;12.052;2023-04-01T06:42:50;96530.00;;;12.40
19040;BMP180;9652;49.014;12.052;2023-04-01T06:45:45;96509.00;;;12.40
19040;BMP180;9652;49.014;12.052;2023-04-01T06:49:05;96521.00;;;12.50
19040;BMP180;9652;49.014;12.052;2023-04-01T06:52:19;96526.00;;;12.50
19040;BMP180;9652;49.014;12.052;2023-04-01T06:55:24;96528.00;;;12.50
19040;BMP180;9652;49.014;12.052;2023-04-01T06:58:19;96523.00;;;12.60
19040;BMP180;9652;49.014;12.052;2023-04-01T07:00:52;96508.00;;;12.60
19040;BMP180;9652;49.014;12.052;2023-04-01T07:03:30;96519.00;;;12.60
19040;BMP180;9652;49.014;12.052;2023-04-01T07:06:05;96519.00;;;12.70
19040;BMP180;9652;49.014;12.052;2023-04-01T07:08:42;96511.00;;;12.70
19040;BMP180;9652;49.014;12.052;2023-04-01T07:11:20;96498.00;;;12.80
19040;BMP180;9652;49.014;12.052;2023-04-01T07:14:20;96516.00;;;12.90
19040;BMP180;9652;49.014;12.052;2023-04-01T07:16:54;96526.00;;;13.00
19040;BMP180;9652;49.014;12.052;2023-04-01T07:19:32;96520.00;;;13.00
19040;BMP180;9652;49.014;12.052;2023-04-01T07:22:20;96530.00;;;13.10
19040;BMP180;9652;49.014;12.052;2023-04-01T07:25:25;96517.00;;;13.10
19040;BMP180;9652;49.014;12.052;2023-04-01T07:28:14;96508.00;;;13.30
19040;BMP180;9652;49.014;12.052;2023-04-01T07:31:01;96504.00;;;13.30
19040;BMP180;9652;49.014;12.052;2023-04-01T07:33:39;96511.00;;;13.40
19040;BMP180;9652;49.014;12.052;2023-04-01T07:36:14;96512.00;;;13.50
19040;BMP180;9652;49.014;12.052;2023-04-01T07:38:56;96505.00;;;13.70
19040;BMP180;9652;49.014;12.052;2023-04-01T07:41:56;96514.00;;;13.80
19040;BMP180;9652;49.014;12.052;2023-04-01T07:44:38;96519.00;;;13.90
19040;BMP180;9652;49.014;12.052;2023-04-01T07:47:32;96522.00;;;14.10
19040;BMP180;9652;49.014;12.052;2023-04-01T07:50:13;96529.00;;;14.20
19040;BMP180;9652;49.014;12.052;2023-04-01T07:52:57;96507.00;;;14.30
19040;BMP180;9652;49.014;12.052;2023-04-01T07:55:39;96514.00;;;14.40
19040;BMP180;9652;49.014;12.052;2023-04-01T07:58:17;96517.00;;;14.40
19040;BMP180;9652;49.014;12.052;2023-04-01T08:00:53;96522.00;;;14.50
19040;BMP180;9652;49.014;12.052;2023-04-01T08:03:42;96522.00;;;14.60
19040;BMP180;9652;49.014;12.052;2023-04-01T08:06:19;96508.00;;;14.70
19040;BMP180;9652;49.014;12.052;2023-04-01T08:09:03;96497.00;;;14.80
19040;BMP180;9652;49.014;12.052;2023-04-01T08:12:10;96526.00;;;14.90
19040;BMP180;9652;49.014;12.052;2023-04-01T08:15:25;96491.00;;;15.00
19040;BMP180;9652;49.014;12.052;2023-04-01T08:18:23;96511.00;;;15.10
19040;BMP180;9652;49.014;12.052;2023-04-01T08:21:00;96515.00;;;15.10
19040;BMP180;9652;49.014;12.052;2023-04-01T08:23:32;96507.00;;;15.10
19040;BMP180;9652;49.014;12.052;2023-04-01T08:26:06;96517.00;;;15.10
19040;BMP180;9652;49.014;12.052;2023-04-01T08:28:46;96511.00;;;15.20
19040;BMP180;9652;49.014;12.052;2023-04-01T08:31:19;96510.00;;;15.20
19040;BMP180;9652;49.014;12.052;2023-04-01T08:33:54;96514.00;;;15.20
19040;BMP180;9652;49.014;12.052;2023-04-01T08:36:27;96501.00;;;15.20
19040;BMP180;9652;49.014;12.052;2023-04-01T08:39:18;96508.00;;;15.30
19040;BMP180;9652;49.014;12.052;2023-04-01T08:42:31;96511.00;;;15.30
19040;BMP180;9652;49.014;12.052;2023-04-01T08:45:22;96512.00;;;15.40
19040;BMP180;9652;49.014;12.052;2023-04-01T08:48:22;96499.00;;;15.50
19040;BMP180;9652;49.014;12.052;2023-04-01T08:51:22;96484.00;;;15.60
19040;BMP180;9652;49.014;12.052;2023-04-01T08:54:22;96478.00;;;15.80
19040;BMP180;9652;49.014;12.052;2023-04-01T08:57:05;96453.00;;;15.80
19040;BMP180;9652;49.014;12.052;2023-04-01T08:59:53;96495.00;;;15.90
19040;BMP180;9652;49.014;12.052;2023-04-01T09:03:34;96477.00;;;16.10
19040;BMP180;9652;49.014;12.052;2023-04-01T09:06:25;96499.00;;;16.20
19040;BMP180;9652;49.014;12.052;2023-04-01T09:09:36;96500.00;;;16.20
19040;BMP180;9652;49.014;12.052;2023-04-01T09:12:42;96508.00;;;16.30
19040;BMP180;9652;49.014;12.052;2023-04-01T09:15:50;96505.00;;;16.40
19040;BMP180;9652;49.014;12.052;2023-04-01T09:18:49;96497.00;;;16.40
19040;BMP180;9652;49.014;12.052;2023-04-01T09:24:51;96504.00;;;16.40
19040;BMP180;9652;49.014;12.052;2023-04-01T09:27:27;96499.00;;;16.50
19040;BMP180;9652;49.014;12.052;2023-04-01T09:30:44;96489.00;;;16.60
19040;BMP180;9652;49.014;12.052;2023-04-01T09:34:07;96502.00;;;16.60
19040;BMP180;9652;49.014;12.052;2023-04-01T09:37:17;96496.00;;;16.70
19040;BMP180;9652;49.014;12.052;2023-04-01T09:40:08;96511.00;;;16.80
19040;BMP180;9652;49.014;12.052;2023-04-01T09:42:52;96505.00;;;16.90
19040;BMP180;9652;49.014;12.052;2023-04-01T09:45:43;96485.00;;;16.90
19040;BMP180;9652;49.014;12.052;2023-04-01T09:48:37;96503.00;;;16.90
19040;BMP180;9652;49.014;12.052;2023-04-01T09:51:23;96446.00;;;16.90
19040;BMP180;9652;49.014;12.052;2023-04-01T09:54:11;96503.00;;;16.80
19040;BMP180;9652;49.014;12.052;2023-04-01T09:57:38;96505.00;;;16.70
19040;BMP180;9652;49.014;12.052;2023-04-01T10:04:08;96508.00;;;16.50
19040;BMP180;9652;49.014;12.052;2023-04-01T10:07:09;96499.00;;;16.50
19040;BMP180;9652;49.014;12.052;2023-04-01T10:13:56;96503.00;;;16.60
19040;BMP180;9652;49.014;12.052;2023-04-01T10:17:05;96499.00;;;16.60
19040;BMP180;9652;49.014;12.052;2023-04-01T10:20:17;96497.00;;;16.60
19040;BMP180;9652;49.014;12.052;2023-04-01T10:23:20;96499.00;;;16.60
19040;BMP180;9652;49.014;12.052;2023-04-01T10:26:48;96488.00;;;16.60
19040;BMP180;9652;49.014;12.052;2023-04-01T10:30:24;96468.00;;;16.60
19040;BMP180;9652;49.014;12.052;2023-04-01T10:33:38;96475.00;;;16.70
19040;BMP180;9652;49.014;12.052;2023-04-01T10:36:43;96470.00;;;16.80
19040;BMP180;9652;49.014;12.052;2023-04-01T10:46:30;96484.00;;;17.10
19040;BMP180;9652;49.014;12.052;2023-04-01T10:49:41;96471.00;;;17.20
19040;BMP180;9652;49.014;12.052;2023-04-01T10:52:45;96425.00;;;17.20
19040;BMP180;9652;49.014;12.052;2023-04-01T10:56:15;96479.00;;;17.20
19040;BMP180;9652;49.014;12.052;2023-04-01T10:59:51;96460.00;;;17.20
19040;BMP180;9652;49.014;12.052;2023-04-01T11:07:23;96475.00;;;17.30
19040;BMP180;9652;49.014;12.052;2023-04-01T11:17:39;96469.00;;;17.30
19040;BMP180;9652;49.014;12.052;2023-04-01T11:20:51;96472.00;;;17.30
19040;BMP180;9652;49.014;12.052;2023-04-01T11:23:50;96466.00;;;17.30
19040;BMP180;9652;49.014;12.052;2023-04-01T11:26:39;96419.00;;;17.20
19040;BMP180;9652;49.014;12.052;2023-04-01T11:29:58;96469.00;;;17.20
19040;BMP180;9652;49.014;12.052;2023-04-01T11:32:46;96502.00;;;17.10
19040;BMP180;9652;49.014;12.052;2023-04-01T11:35:49;96506.00;;;16.90
19040;BMP180;9652;49.014;12.052;2023-04-01T11:38:30;96506.00;;;16.70
19040;BMP180;9652;49.014;12.052;2023-04-01T11:41:14;96450.00;;;16.50
19040;BMP180;9652;49.014;12.052;2023-04-01T11:44:16;96510.00;;;16.40
19040;BMP180;9652;49.014;12.052;2023-04-01T11:47:32;96507.00;;;16.30
19040;BMP180;9652;49.014;12.052;2023-04-01T11:50:26;96476.00;;;16.10
19040;BMP180;9652;49.014;12.052;2023-04-01T11:53:07;96511.00;;;16.00
19040;BMP180;9652;49.014;12.052;2023-04-01T11:55:53;96502.00;;;15.90
19040;BMP180;9652;49.014;12.052;2023-04-01T11:59:13;96492.00;;;15.90
19040;BMP180;9652;49.014;12.052;2023-04-01T12:01:59;96517.00;;;15.80
19040;BMP180;9652;49.014;12.052;2023-04-01T12:04:58;96513.00;;;15.70
19040;BMP180;9652;49.014;12.052;2023-04-01T12:07:59;96518.00;;;15.70
19040;BMP180;9652;49.014;12.052;2023-04-01T12:10:39;96512.00;;;15.70
19040;BMP180;9652;49.014;12.052;2023-04-01T12:13:22;96525.00;;;15.70
19040;BMP180;9652;49.014;12.052;2023-04-01T12:16:16;96509.00;;;15.70
19040;BMP180;9652;49.014;12.052;2023-04-01T12:18:52;96511.00;;;15.70
19040;BMP180;9652;49.014;12.052;2023-04-01T12:21:29;96519.00;;;15.60
19040;BMP180;9652;49.014;12.052;2023-04-01T12:24:29;96511.00;;;15.60
19040;BMP180;9652;49.014;12.052;2023-04-01T12:27:39;96518.00;;;15.60
19040;BMP180;9652;49.014;12.052;2023-04-01T12:30:43;96526.00;;;15.50
19040;BMP180;9652;49.014;12.052;2023-04-01T12:33:33;96514.00;;;15.30
19040;BMP180;9652;49.014;12.052;2023-04-01T12:36:17;96521.00;;;15.30
19040;BMP180;9652;49.014;12.052;2023-04-01T12:39:11;96491.00;;;15.20
19040;BMP180;9652;49.014;12.052;2023-04-01T12:41:54;96528.00;;;15.20
19040;BMP180;9652;49.014;12.052;2023-04-01T12:51:41;96523.00;;;15.30
19040;BMP180;9652;49.014;12.052;2023-04-01T13:00:56;96524.00;;;15.10
19040;BMP180;9652;49.014;12.052;2023-04-01T13:07:21;96519.00;;;14.90
19040;BMP180;9652;49.014;12.052;2023-04-01T13:10:01;96529.00;;;14.80
19040;BMP180;9652;49.014;12.052;2023-04-01T13:12:49;96510.00;;;14.80
19040;BMP180;9652;49.014;12.052;2023-04-01T13:15:33;96529.00;;;14.70
19040;BMP180;9652;49.014;12.052;2023-04-01T13:18:17;96547.00;;;14.70
19040;BMP180;9652;49.014;12.052;2023-04-01T13:20:59;96528.00;;;14.70
19040;BMP180;9652;49.014;12.052;2023-04-01T13:23:45;96515.00;;;14.70
19040;BMP180;9652;49.014;12.052;2023-04-01T13:26:26;96525.00;;;14.70
19040;BMP180;9652;49.014;12.052;2023-04-01T13:29:04;96523.00;;;14.70
19040;BMP180;9652;49.014;12.052;2023-04-01T13:31:53;96526.00;;;14.70
19040;BMP180;9652;49.014;12.052;2023-04-01T13:34:39;96519.00;;;14.70
19040;BMP180;9652;49.014;12.052;2023-04-01T13:37:30;96535.00;;;14.70
19040;BMP180;9652;49.014;12.052;2023-04-01T13:40:29;96537.00;;;14.60
19040;BMP180;9652;49.014;12.052;2023-04-01T13:43:10;96543.00;;;14.60
19040;BMP180;9652;49.014;12.052;2023-04-01T13:45:55;96517.00;;;14.50
19040;BMP180;9652;49.014;12.052;2023-04-01T13:51:49;96544.00;;;14.40
19040;BMP180;9652;49.014;12.052;2023-04-01T13:54:57;96535.00;;;14.30
19040;BMP180;9652;49.014;12.052;2023-04-01T13:58:02;96523.00;;;14.30
19040;BMP180;9652;49.014;12.052;2023-04-01T14:00:45;96511.00;;;14.30
19040;BMP180;9652;49.014;12.052;2023-04-01T14:03:37;96540.00;;;14.20
19040;BMP180;9652;49.014;12.052;2023-04-01T14:06:18;96541.00;;;14.20
19040;BMP180;9652;49.014;12.052;2023-04-01T14:09:25;96549.00;;;14.10
19040;BMP180;9652;49.014;12.052;2023-04-01T14:12:05;96551.00;;;14.20
19040;BMP180;9652;49.014;12.052;2023-04-01T14:14:52;96538.00;;;14.20
19040;BMP180;9652;49.014;12.052;2023-04-01T14:17:41;96483.00;;;14.20
19040;BMP180;9652;49.014;12.052;2023-04-01T14:20:29;96474.00;;;14.20
19040;BMP180;9652;49.014;12.052;2023-04-01T14:23:55;96528.00;;;14.30
19040;BMP180;9652;49.014;12.052;2023-04-01T14:26:58;96539.00;;;14.30
19040;BMP180;9652;49.014;12.052;2023-04-01T14:29:43;96546.00;;;14.30
19040;BMP180;9652;49.014;12.052;2023-04-01T14:32:23;96550.00;;;14.40
19040;BMP180;9652;49.014;12.052;2023-04-01T14:35:17;96552.00;;;14.40
19040;BMP180;9652;49.014;12.052;2023-04-01T14:38:28;96520.00;;;14.40
19040;BMP180;9652;49.014;12.052;2023-04-01T14:41:11;96493.00;;;14.40
19040;BMP180;9652;49.014;12.052;2023-04-01T14:44:18;96546.00;;;14.40
19040;BMP180;9652;49.014;12.052;2023-04-01T14:47:15;96542.00;;;14.30
19040;BMP180;9652;49.014;12.052;2023-04-01T14:49:52;96539.00;;;14.30
19040;BMP180;9652;49.014;12.052;2023-04-01T14:52:27;96549.00;;;14.20
19040;BMP180;9652;49.014;12.052;2023-04-01T14:54:56;96543.00;;;14.30
19040;BMP180;9652;49.014;12.052;2023-04-01T14:57:27;96547.00;;;14.20
19040;BMP180;9652;49.014;12.052;2023-04-01T15:00:05;96542.00;;;14.20
19040;BMP180;9652;49.014;12.052;2023-04-01T15:02:54;96543.00;;;14.20
19040;BMP180;9652;49.014;12.052;2023-04-01T15:05:43;96558.00;;;14.20
19040;BMP180;9652;49.014;12.052;2023-04-01T15:08:20;96500.00;;;14.20
19040;BMP180;9652;49.014;12.052;2023-04-01T15:14:42;96565.00;;;14.20
19040;BMP180;9652;49.014;12.052;2023-04-01T15:17:45;96561.00;;;14.10
19040;BMP180;9652;49.014;12.052;2023-04-01T15:20:52;96552.00;;;14.20
19040;BMP180;9652;49.014;12.052;2023-04-01T15:23:43;96535.00;;;14.20
19040;BMP180;9652;49.014;12.052;2023-04-01T15:26:42;96556.00;;;14.30
19040;BMP180;9652;49.014;12.052;2023-04-01T15:29:39;96552.00;;;14.30
19040;BMP180;9652;49.014;12.052;2023-04-01T15:32:19;96557.00;;;14.30
19040;BMP180;9652;49.014;12.052;2023-04-01T15:34:57;96556.00;;;14.30
19040;BMP180;9652;49.014;12.052;2023-04-01T15:37:38;96567.00;;;14.40
19040;BMP180;9652;49.014;12.052;2023-04-01T15:40:20;96562.00;;;14.40
19040;BMP180;9652;49.014;12.052;2023-04-01T15:43:06;96569.00;;;14.40
19040;BMP180;9652;49.014;12.052;2023-04-01T15:45:49;96573.00;;;14.40
19040;BMP180;9652;49.014;12.052;2023-04-01T15:48:38;96569.00;;;14.40
19040;BMP180;9652;49.014;12.052;2023-04-01T15:51:41;96597.00;;;14.40
19040;BMP180;9652;49.014;12.052;2023-04-01T15:54:27;96576.00;;;14.40
19040;BMP180;9652;49.014;12.052;2023-04-01T15:57:25;96558.00;;;14.40
19040;BMP180;9652;49.014;12.052;2023-04-01T16:00:22;96581.00;;;14.40
19040;BMP180;9652;49.014;12.052;2023-04-01T16:03:13;96576.00;;;14.40
19040;BMP180;9652;49.014;12.052;2023-04-01T16:06:02;96576.00;;;14.40
19040;BMP180;9652;49.014;12.052;2023-04-01T16:09:03;96587.00;;;14.40
19040;BMP180;9652;49.014;12.052;2023-04-01T16:11:49;96582.00;;;14.40
19040;BMP180;9652;49.014;12.052;2023-04-01T16:14:33;96578.00;;;14.40
19040;BMP180;9652;49.014;12.052;2023-04-01T16:17:27;96572.00;;;14.30
19040;BMP180;9652;49.014;12.052;2023-04-01T16:20:02;96580.00;;;14.30
19040;BMP180;9652;49.014;12.052;2023-04-01T16:22:38;96568.00;;;14.30
19040;BMP180;9652;49.014;12.052;2023-04-01T16:25:36;96586.00;;;14.30
19040;BMP180;9652;49.014;12.052;2023-04-01T16:28:22;96586.00;;;14.30
19040;BMP180;9652;49.014;12.052;2023-04-01T16:31:00;96592.00;;;14.30
19040;BMP180;9652;49.014;12.052;2023-04-01T16:33:40;96584.00;;;14.20
19040;BMP180;9652;49.014;12.052;2023-04-01T16:36:24;96570.00;;;14.20
19040;BMP180;9652;49.014;12.052;2023-04-01T16:39:18;96593.00;;;14.10
19040;BMP180;9652;49.014;12.052;2023-04-01T16:42:11;96595.00;;;14.10